Time;durP1;ratioP1;P1;durP2;ratioP2;P2;SDS_P1;SDS_P2;PMS_P1;PMS_P2;Temp;Humidity;BMP_temperature;BMP_pressure;BME280_temperature;BME280_humidity;BME280_pressure;Samples;Min_cycle;Max_cycle;Signal;HPM_P1;HPM_P2
2023/12/08 00:02:08;;;;;;;9.80;8.40;;;3.50;99.90;;;;;;5050252;28;20177;-87
2023/12/08 00:04:33;;;;;;;11.50;8.63;;;4.00;99.90;;;;;;5046393;28;20472;-88
2023/12/08 00:06:59;;;;;;;11.20;8.53;;;4.00;99.90;;;;;;5049044;28;20267;-87
2023/12/08 00:09:24;;;;;;;13.50;9.07;;;4.10;99.90;;;;;;5050028;28;20212;-87
2023/12/08 00:11:50;;;;;;;11.50;8.90;;;3.60;99.90;;;;;;5064104;28;20187;-89
2023/12/08 00:14:15;;;;;;;11.60;8.43;;;3.90;99.90;;;;;;5045517;28;20208;-89
2023/12/08 00:16:41;;;;;;;11.20;8.73;;;3.70;99.90;;;;;;5048260;28;20359;-89
2023/12/08 00:19:07;;;;;;;8.97;8.00;;;3.70;99.90;;;;;;5046056;28;20636;-88
2023/12/08 00:21:33;;;;;;;9.03;8.13;;;4.10;99.90;;;;;;5051377;28;20219;-89
2023/12/08 00:23:58;;;;;;;12.17;8.67;;;3.60;99.90;;;;;;5049020;28;20208;-87
2023/12/08 00:26:24;;;;;;;15.97;10.03;;;3.80;99.90;;;;;;5043413;28;20202;-88
2023/12/08 00:28:50;;;;;;;9.37;7.80;;;3.70;99.90;;;;;;5039216;28;20208;-89
2023/12/08 00:31:15;;;;;;;11.37;8.00;;;3.80;99.90;;;;;;5032282;28;20192;-89
2023/12/08 00:33:41;;;;;;;10.20;7.93;;;4.00;99.90;;;;;;5030727;28;20215;-87
2023/12/08 00:36:13;;;;;;;9.60;8.00;;;3.90;99.90;;;;;;5032421;28;20217;-89
2023/12/08 00:38:40;;;;;;;13.32;8.40;;;4.10;99.50;;;;;;5029332;28;20298;-87
2023/12/08 00:41:08;;;;;;;9.27;7.28;;;4.00;99.90;;;;;;5027225;28;20667;-89
2023/12/08 00:43:33;;;;;;;9.05;7.97;;;4.00;99.90;;;;;;5030444;28;20204;-88
2023/12/08 00:45:59;;;;;;;15.33;8.03;;;4.10;99.90;;;;;;5017091;28;20181;-87
2023/12/08 00:48:25;;;;;;;10.13;8.20;;;4.50;99.90;;;;;;5029231;28;20184;-87
2023/12/08 00:50:51;;;;;;;9.63;8.35;;;4.40;99.90;;;;;;5042702;28;20218;-87
2023/12/08 00:53:17;;;;;;;11.30;8.90;;;3.80;99.90;;;;;;5049574;28;20195;-89
2023/12/08 00:55:42;;;;;;;10.80;8.77;;;4.10;99.90;;;;;;5035417;28;20184;-89
2023/12/08 00:58:08;;;;;;;10.10;8.30;;;3.50;99.90;;;;;;5036849;28;20194;-88
2023/12/08 01:00:33;;;;;;;10.73;8.73;;;4.30;99.90;;;;;;5032155;28;20224;-88
2023/12/08 01:02:59;;;;;;;11.47;8.90;;;3.90;99.90;;;;;;5025929;28;20183;-89
2023/12/08 01:05:24;;;;;;;9.43;7.93;;;4.20;99.90;;;;;;5031017;28;20286;-88
2023/12/08 01:07:50;;;;;;;10.33;8.77;;;3.90;99.90;;;;;;5030167;28;20542;-89
2023/12/08 01:10:16;;;;;;;8.90;8.00;;;3.80;99.90;;;;;;5036465;28;20672;-88
2023/12/08 01:12:43;;;;;;;10.00;8.60;;;3.70;99.90;;;;;;5030775;28;20191;-87
2023/12/08 01:15:09;;;;;;;12.32;8.20;;;3.90;99.90;;;;;;5024243;28;20243;-89
2023/12/08 01:17:34;;;;;;;10.20;7.97;;;3.90;99.90;;;;;;5026292;28;20199;-89
2023/12/08 01:20:00;;;;;;;10.40;7.13;;;4.60;99.90;;;;;;5035326;28;20529;-87
2023/12/08 01:22:27;;;;;;;10.70;7.87;;;4.20;99.90;;;;;;5028236;28;20191;-89
2023/12/08 01:24:54;;;;;;;8.82;7.43;;;4.10;99.70;;;;;;5034836;28;20209;-87
2023/12/08 01:27:19;;;;;;;9.98;8.25;;;4.10;99.90;;;;;;5051447;28;20171;-88
2023/12/08 01:29:45;;;;;;;9.10;8.00;;;4.40;99.90;;;;;;5047614;28;20188;-89
2023/12/08 01:32:10;;;;;;;8.47;7.33;;;3.70;99.90;;;;;;5040659;28;20195;-89
2023/12/08 01:34:36;;;;;;;10.10;9.10;;;4.10;99.90;;;;;;5035126;28;20291;-88
2023/12/08 01:37:01;;;;;;;12.90;8.37;;;4.10;99.90;;;;;;5015867;28;20195;-88
2023/12/08 01:39:27;;;;;;;9.37;8.40;;;3.90;99.90;;;;;;5027969;28;20244;-88
2023/12/08 01:41:52;;;;;;;8.87;7.60;;;3.90;99.90;;;;;;5026220;28;20271;-88
2023/12/08 01:44:18;;;;;;;10.90;8.00;;;3.90;99.90;;;;;;5025923;28;20240;-89
2023/12/08 01:46:45;;;;;;;8.07;7.17;;;3.70;99.90;;;;;;5030562;28;20188;-89
2023/12/08 01:49:11;;;;;;;7.20;6.47;;;4.20;99.90;;;;;;5023053;28;20201;-89
2023/12/08 01:51:37;;;;;;;8.95;7.30;;;4.10;99.90;;;;;;5029651;28;20796;-89
2023/12/08 01:54:04;;;;;;;10.97;7.30;;;4.20;99.90;;;;;;5034107;28;20215;-88
2023/12/08 01:56:30;;;;;;;8.68;6.68;;;4.30;99.90;;;;;;5032675;28;20187;-88
2023/12/08 01:58:56;;;;;;;10.83;7.80;;;4.20;99.90;;;;;;5042558;28;20237;-88
2023/12/08 02:01:21;;;;;;;9.13;7.13;;;3.90;99.90;;;;;;5033112;28;20210;-89
2023/12/08 02:03:50;;;;;;;8.23;7.40;;;4.20;99.90;;;;;;5046492;28;20225;-89
2023/12/08 02:06:17;;;;;;;7.68;6.78;;;4.20;99.90;;;;;;5057871;28;20187;-88
2023/12/08 02:08:44;;;;;;;9.27;6.65;;;4.20;99.90;;;;;;5048727;28;20255;-88
2023/12/08 02:11:10;;;;;;;8.20;6.60;;;3.90;99.90;;;;;;5034967;28;20206;-89
2023/12/08 02:13:36;;;;;;;8.50;6.63;;;4.10;99.40;;;;;;5025917;28;20667;-89
2023/12/08 02:16:13;;;;;;;10.70;6.90;;;4.30;99.20;;;;;;5042671;28;20544;-89
2023/12/08 02:18:39;;;;;;;8.95;6.68;;;4.40;99.10;;;;;;5028000;28;20655;-88
2023/12/08 02:21:08;;;;;;;12.47;6.17;;;4.70;99.20;;;;;;5034184;28;20508;-89
2023/12/08 02:23:34;;;;;;;12.60;7.00;;;4.30;99.70;;;;;;5028610;28;21024;-89
2023/12/08 02:26:00;;;;;;;13.70;7.07;;;6.20;99.90;;;;;;5025100;28;20663;-88
2023/12/08 02:28:25;;;;;;;7.30;6.10;;;4.20;99.90;;;;;;5033859;28;20205;-89
2023/12/08 02:30:55;;;;;;;7.67;6.23;;;4.10;99.90;;;;;;5026526;28;20188;-89
2023/12/08 02:33:32;;;;;;;8.25;6.03;;;4.00;99.90;;;;;;5024730;28;20732;-89
2023/12/08 02:36:00;;;;;;;7.80;7.00;;;4.30;99.90;;;;;;5029030;28;20724;-89
2023/12/08 02:38:27;;;;;;;7.00;5.97;;;4.20;99.90;;;;;;5031016;28;20280;-89
2023/12/08 02:40:54;;;;;;;9.65;6.20;;;4.30;99.50;;;;;;5031486;28;20191;-89
2023/12/08 02:43:19;;;;;;;6.78;6.07;;;4.30;98.90;;;;;;5029709;28;20185;-89
2023/12/08 02:45:45;;;;;;;8.40;6.17;;;4.40;99.50;;;;;;5024307;28;20227;-89
2023/12/08 02:48:11;;;;;;;37.80;9.30;;;;;;;;;;5030082;28;20249;-88
2023/12/08 02:50:36;;;;;;;11.60;6.60;;;4.10;99.90;;;;;;5029343;28;20238;-89
2023/12/08 02:53:02;;;;;;;12.50;5.73;;;4.60;99.90;;;;;;5030064;28;20455;-89
2023/12/08 02:55:27;;;;;;;7.77;5.50;;;4.30;99.90;;;;;;5024610;28;20682;-88
2023/12/08 02:57:53;;;;;;;6.80;6.10;;;4.70;99.90;;;;;;5030525;28;20262;-89
2023/12/08 03:00:19;;;;;;;10.37;5.90;;;4.10;99.90;;;;;;5027313;28;20284;-89
2023/12/08 03:02:44;;;;;;;6.17;5.57;;;4.80;99.90;;;;;;5027065;28;20534;-88
2023/12/08 03:05:10;;;;;;;10.20;6.73;;;4.50;99.90;;;;;;5031963;28;20274;-88
2023/12/08 03:07:35;;;;;;;8.33;5.53;;;4.60;99.90;;;;;;5023077;28;20178;-88
2023/12/08 03:10:01;;;;;;;6.80;5.70;;;5.10;99.90;;;;;;5028193;28;20705;-88
2023/12/08 03:12:26;;;;;;;6.63;5.73;;;4.50;99.90;;;;;;5058879;28;20274;-87
2023/12/08 03:14:52;;;;;;;6.20;5.53;;;5.40;99.90;;;;;;5060600;28;20478;-89
2023/12/08 03:17:18;;;;;;;7.23;5.20;;;4.60;99.90;;;;;;5055047;28;20203;-88
2023/12/08 03:19:43;;;;;;;8.20;5.30;;;4.70;99.90;;;;;;5048718;28;20213;-87
2023/12/08 03:22:09;;;;;;;5.40;4.90;;;4.70;99.50;;;;;;5052200;28;20185;-89
2023/12/08 03:24:34;;;;;;;7.00;5.37;;;4.60;99.80;;;;;;5036266;28;20230;-89
2023/12/08 03:27:00;;;;;;;6.67;5.13;;;4.60;99.90;;;;;;5049816;28;20197;-89
2023/12/08 03:29:25;;;;;;;7.33;5.10;;;4.40;99.60;;;;;;5034589;28;20225;-89
2023/12/08 03:31:51;;;;;;;6.93;4.90;;;4.50;99.80;;;;;;5026511;28;20187;-88
2023/12/08 03:34:16;;;;;;;6.40;5.00;;;4.50;99.90;;;;;;5028870;28;20397;-89
2023/12/08 03:36:42;;;;;;;5.97;5.37;;;4.30;99.90;;;;;;5026428;28;20181;-87
2023/12/08 03:39:07;;;;;;;6.87;5.63;;;4.90;99.90;;;;;;5034729;28;20401;-87
2023/12/08 03:41:33;;;;;;;6.00;5.37;;;5.00;99.40;;;;;;5027855;28;20185;-86
2023/12/08 03:43:58;;;;;;;9.10;4.70;;;4.60;99.80;;;;;;5033284;28;20249;-86
2023/12/08 03:46:24;;;;;;;5.83;5.33;;;4.80;99.90;;;;;;5032526;28;20186;-86
2023/12/08 03:48:49;;;;;;;6.67;5.80;;;4.70;99.90;;;;;;5029553;28;20189;-87
2023/12/08 03:51:15;;;;;;;7.37;4.93;;;4.20;99.90;;;;;;5026790;28;20185;-86
2023/12/08 03:53:40;;;;;;;7.50;5.70;;;4.80;99.90;;;;;;5034678;28;20636;-86
2023/12/08 03:56:07;;;;;;;5.77;5.17;;;4.40;99.90;;;;;;5029875;28;20194;-85
2023/12/08 03:58:33;;;;;;;5.63;5.00;;;4.40;99.90;;;;;;5031767;28;20191;-85
2023/12/08 04:00:58;;;;;;;6.05;5.45;;;4.70;99.90;;;;;;5025318;28;20195;-85
2023/12/08 04:03:24;;;;;;;4.90;4.43;;;4.30;99.90;;;;;;5022087;28;20254;-85
2023/12/08 04:05:50;;;;;;;5.73;4.80;;;4.50;99.90;;;;;;5046321;28;20231;-85
2023/12/08 04:08:15;;;;;;;5.57;4.80;;;4.30;99.80;;;;;;5031428;28;20448;-86
2023/12/08 04:10:41;;;;;;;5.60;5.10;;;4.50;99.50;;;;;;5028140;28;20185;-85
2023/12/08 04:13:07;;;;;;;6.33;5.50;;;4.90;98.90;;;;;;5024960;28;20185;-86
2023/12/08 04:15:33;;;;;;;5.77;5.20;;;4.50;99.10;;;;;;5023022;28;20378;-85
2023/12/08 04:17:59;;;;;;;5.65;4.82;;;4.90;99.40;;;;;;5029222;28;20185;-85
2023/12/08 04:20:24;;;;;;;5.20;4.70;;;4.60;99.20;;;;;;5030320;28;20703;-85
2023/12/08 04:22:50;;;;;;;4.60;4.10;;;4.60;99.70;;;;;;5028813;28;20192;-85
2023/12/08 04:25:15;;;;;;;6.90;4.50;;;4.70;99.40;;;;;;5029299;28;20218;-85
2023/12/08 04:27:41;;;;;;;5.47;4.90;;;4.80;99.50;;;;;;5032685;28;20181;-85
2023/12/08 04:30:07;;;;;;;6.23;4.60;;;5.00;99.60;;;;;;5035435;28;20286;-86
2023/12/08 04:32:33;;;;;;;7.40;5.60;;;4.70;99.10;;;;;;5030281;28;20209;-85
2023/12/08 04:34:59;;;;;;;5.40;4.90;;;4.80;98.70;;;;;;5031482;28;20212;-85
2023/12/08 04:37:24;;;;;;;5.60;5.00;;;5.30;98.50;;;;;;5044589;28;20610;-86
2023/12/08 04:39:50;;;;;;;5.53;4.53;;;4.90;98.70;;;;;;5048245;28;20503;-86
2023/12/08 04:42:16;;;;;;;5.57;5.07;;;5.20;99.50;;;;;;5041635;28;20192;-86
2023/12/08 04:44:42;;;;;;;5.82;5.10;;;5.20;99.90;;;;;;5031870;28;20212;-86
2023/12/08 04:47:09;;;;;;;6.93;4.97;;;4.90;99.90;;;;;;5026771;28;20209;-86
2023/12/08 04:49:34;;;;;;;5.80;5.20;;;4.80;99.90;;;;;;5032176;28;20185;-86
2023/12/08 04:52:00;;;;;;;5.97;5.03;;;4.90;99.90;;;;;;5028814;28;20730;-86
2023/12/08 04:54:25;;;;;;;7.17;5.60;;;4.90;99.90;;;;;;5030620;28;20239;-86
2023/12/08 04:56:51;;;;;;;6.27;5.20;;;4.80;99.90;;;;;;5023127;28;20192;-86
2023/12/08 04:59:16;;;;;;;6.43;5.20;;;5.00;99.90;;;;;;5042973;28;20332;-86
2023/12/08 05:01:42;;;;;;;5.80;5.20;;;4.90;99.90;;;;;;5026804;28;20251;-86
2023/12/08 05:04:07;;;;;;;5.73;5.00;;;5.20;99.90;;;;;;5026388;28;20766;-88
2023/12/08 05:06:33;;;;;;;5.23;4.70;;;4.90;99.90;;;;;;5024821;28;20189;-88
2023/12/08 05:08:58;;;;;;;7.47;6.10;;;5.20;99.90;;;;;;5025984;28;20657;-88
2023/12/08 05:11:24;;;;;;;6.40;5.53;;;5.20;99.90;;;;;;5025297;28;20189;-88
2023/12/08 05:13:49;;;;;;;6.53;5.93;;;4.90;99.90;;;;;;5027981;28;20211;-87
2023/12/08 05:16:15;;;;;;;7.27;6.10;;;5.00;99.90;;;;;;5027165;28;20709;-88
2023/12/08 05:18:41;;;;;;;5.97;5.38;;;5.30;99.90;;;;;;5031895;28;20331;-86
2023/12/08 05:21:07;;;;;;;7.93;6.07;;;5.00;99.90;;;;;;5025584;28;20188;-87
2023/12/08 05:23:33;;;;;;;7.47;6.03;;;5.30;99.90;;;;;;5026900;28;20215;-87
2023/12/08 05:25:59;;;;;;;6.53;5.80;;;5.00;99.90;;;;;;5029592;28;20692;-88
2023/12/08 05:28:25;;;;;;;8.05;5.72;;;5.10;99.90;;;;;;5040164;28;20180;-88
2023/12/08 05:30:53;;;;;;;6.33;5.60;;;4.80;99.90;;;;;;5053929;28;20209;-88
2023/12/08 05:33:18;;;;;;;7.25;5.80;;;4.50;99.90;;;;;;5054104;28;20182;-88
2023/12/08 05:35:44;;;;;;;11.00;7.43;;;;;;;;;;5056582;28;20201;-88
2023/12/08 05:38:10;;;;;;;7.10;6.15;;;4.80;99.90;;;;;;5044897;28;20193;-88
2023/12/08 05:40:37;;;;;;;7.77;6.07;;;4.60;99.90;;;;;;5034311;28;20207;-88
2023/12/08 05:43:03;;;;;;;6.35;5.75;;;5.00;99.90;;;;;;5033117;28;20184;-88
2023/12/08 05:45:29;;;;;;;10.25;6.97;;;7.10;99.90;;;;;;5028220;28;20307;-88
2023/12/08 05:47:54;;;;;;;7.80;5.90;;;5.20;99.90;;;;;;5027241;28;20203;-88
2023/12/08 05:50:20;;;;;;;10.83;7.27;;;5.00;99.90;;;;;;5033220;28;20197;-88
2023/12/08 05:52:46;;;;;;;7.17;6.17;;;5.40;99.90;;;;;;5025913;28;20226;-88
2023/12/08 05:55:11;;;;;;;11.40;6.50;;;5.40;99.90;;;;;;5032791;28;20229;-88
2023/12/08 05:57:40;;;;;;;7.33;5.27;;;6.40;99.90;;;;;;5037535;28;20740;-88
2023/12/08 06:00:09;;;;;;;11.15;6.35;;;5.40;99.90;;;;;;5037754;28;20210;-88
2023/12/08 06:02:35;;;;;;;9.00;6.75;;;5.30;99.90;;;;;;5043482;28;20185;-88
2023/12/08 06:05:01;;;;;;;9.53;6.20;;;5.10;99.90;;;;;;5037819;28;20296;-88
2023/12/08 06:07:27;;;;;;;8.65;7.68;;;5.40;99.90;;;;;;5064803;28;20470;-88
2023/12/08 06:09:52;;;;;;;8.10;7.20;;;5.00;99.90;;;;;;5043223;28;20189;-88
2023/12/08 06:12:18;;;;;;;8.83;6.73;;;5.00;99.90;;;;;;5028576;28;20189;-88
2023/12/08 06:14:43;;;;;;;10.70;7.33;;;5.10;99.90;;;;;;5020475;28;20209;-88
2023/12/08 06:17:09;;;;;;;11.50;7.97;;;5.00;99.90;;;;;;5027871;28;20186;-88
2023/12/08 06:19:34;;;;;;;8.50;7.30;;;4.60;99.90;;;;;;5033842;28;20223;-89
2023/12/08 06:22:00;;;;;;;15.57;10.23;;;4.70;99.90;;;;;;5018243;28;20190;-88
2023/12/08 06:24:26;;;;;;;9.57;7.07;;;4.90;99.90;;;;;;5025309;28;20201;-88
2023/12/08 06:26:51;;;;;;;8.30;6.80;;;5.00;99.90;;;;;;5030114;28;20192;-88
2023/12/08 06:29:17;;;;;;;8.57;7.50;;;5.10;99.90;;;;;;5040984;28;20185;-88
2023/12/08 06:31:46;;;;;;;11.20;8.53;;;4.70;99.90;;;;;;5030807;28;20778;-88
2023/12/08 06:34:13;;;;;;;12.73;8.43;;;4.90;99.90;;;;;;5034388;28;20482;-89
2023/12/08 06:36:46;;;;;;;10.73;8.55;;;4.90;99.90;;;;;;5028654;28;20194;-89
2023/12/08 06:39:16;;;;;;;10.00;8.10;;;5.00;99.90;;;;;;5032579;28;20211;-89
2023/12/08 06:41:41;;;;;;;9.23;7.57;;;4.90;99.90;;;;;;5055222;28;20688;-89
2023/12/08 06:44:07;;;;;;;12.00;7.53;;;4.70;99.90;;;;;;5052295;28;20229;-89
2023/12/08 06:46:34;;;;;;;9.57;8.23;;;4.70;99.90;;;;;;5044999;28;20230;-89
2023/12/08 06:48:59;;;;;;;9.27;8.38;;;4.80;99.90;;;;;;5028085;28;20195;-88
2023/12/08 06:51:25;;;;;;;9.23;8.20;;;4.60;99.90;;;;;;5029796;28;20200;-88
2023/12/08 06:53:53;;;;;;;8.75;7.65;;;4.70;99.90;;;;;;4983424;28;1335347;-86
2023/12/08 06:56:18;;;;;;;8.38;7.53;;;5.10;99.90;;;;;;5006812;28;20575;-86
2023/12/08 06:58:44;;;;;;;8.70;7.80;;;4.60;99.90;;;;;;5032102;28;20346;-86
2023/12/08 07:01:10;;;;;;;10.70;7.90;;;4.60;99.90;;;;;;5033478;28;20303;-87
2023/12/08 07:03:35;;;;;;;7.97;6.90;;;5.00;99.90;;;;;;5022828;28;20303;-87
2023/12/08 07:06:04;;;;;;;10.37;8.00;;;4.60;99.90;;;;;;5018682;28;20496;-89
2023/12/08 07:08:29;;;;;;;9.93;7.43;;;4.10;99.90;;;;;;5036620;28;20192;-90
2023/12/08 07:10:55;;;;;;;8.80;7.30;;;4.60;99.90;;;;;;5048599;28;20204;-88
2023/12/08 07:13:21;;;;;;;10.17;7.73;;;;;;;;;;5032701;28;20186;-91
2023/12/08 07:15:47;;;;;;;8.50;7.35;;;4.70;99.90;;;;;;5039535;28;20189;-91
2023/12/08 07:18:13;;;;;;;12.85;8.20;;;;;;;;;;5035560;28;20186;-88
2023/12/08 07:20:39;;;;;;;10.15;8.60;;;4.60;99.90;;;;;;5035262;28;20205;-89
2023/12/08 07:23:05;;;;;;;11.03;8.37;;;4.30;99.90;;;;;;5025915;28;20193;-88
2023/12/08 07:25:32;;;;;;;10.93;7.87;;;4.20;99.90;;;;;;5035930;28;20179;-90
2023/12/08 07:27:58;;;;;;;11.88;8.23;;;4.60;99.90;;;;;;5043287;28;20705;-89
2023/12/08 07:30:23;;;;;;;11.33;8.33;;;4.40;99.90;;;;;;5027466;28;20193;-89
2023/12/08 07:32:50;;;;;;;11.10;9.20;;;4.40;99.90;;;;;;5028432;28;20187;-89
2023/12/08 07:35:16;;;;;;;9.70;8.23;;;4.60;99.90;;;;;;5027435;28;20553;-90
2023/12/08 07:37:41;;;;;;;10.40;8.60;;;5.00;99.90;;;;;;5047100;28;20188;-89
2023/12/08 07:40:09;;;;;;;8.67;7.70;;;4.60;99.90;;;;;;5035245;28;20626;-89
2023/12/08 07:42:36;;;;;;;10.95;6.95;;;4.80;99.90;;;;;;5027697;28;20234;-89
2023/12/08 07:45:02;;;;;;;8.52;7.13;;;5.10;99.90;;;;;;5031361;28;20201;-89
2023/12/08 07:47:27;;;;;;;8.45;6.95;;;4.50;99.90;;;;;;5041290;28;20199;-90
2023/12/08 07:49:54;;;;;;;7.17;6.30;;;4.80;99.90;;;;;;5048264;28;20245;-88
2023/12/08 07:52:20;;;;;;;8.60;6.25;;;5.00;99.90;;;;;;5038792;28;20193;-89
2023/12/08 07:54:45;;;;;;;6.47;5.87;;;5.60;99.90;;;;;;5023204;28;20222;-90
2023/12/08 07:57:11;;;;;;;7.53;5.60;;;5.60;99.90;;;;;;5035345;28;20225;-90
2023/12/08 07:59:36;;;;;;;10.30;7.00;;;5.30;99.90;;;;;;5028020;28;20297;-90
2023/12/08 08:02:02;;;;;;;9.80;6.93;;;5.50;99.90;;;;;;5034638;28;20181;-90
2023/12/08 08:04:28;;;;;;;9.83;8.00;;;5.10;99.90;;;;;;5038939;28;20224;-90
2023/12/08 08:06:53;;;;;;;11.47;7.83;;;5.20;99.90;;;;;;5022386;28;20448;-88
2023/12/08 08:09:19;;;;;;;10.60;6.97;;;5.30;99.90;;;;;;5030284;28;20201;-88
2023/12/08 08:11:44;;;;;;;8.27;7.27;;;5.30;99.90;;;;;;5031302;28;20273;-87
2023/12/08 08:14:10;;;;;;;9.47;7.17;;;5.80;99.90;;;;;;5031073;28;20823;-87
2023/12/08 08:16:36;;;;;;;9.15;7.18;;;5.80;99.90;;;;;;5028886;28;20193;-86
2023/12/08 08:19:02;;;;;;;10.40;6.97;;;5.40;99.90;;;;;;5026690;28;20217;-86
2023/12/08 08:21:28;;;;;;;12.07;8.80;;;6.80;99.90;;;;;;5030520;28;20259;-87
2023/12/08 08:23:53;;;;;;;9.07;8.13;;;6.50;99.90;;;;;;5030936;28;20470;-87
2023/12/08 08:26:19;;;;;;;8.73;7.23;;;7.10;99.90;;;;;;5038400;28;20181;-88
2023/12/08 08:28:45;;;;;;;8.47;6.80;;;5.30;99.90;;;;;;5045706;28;20201;-88
2023/12/08 08:31:12;;;;;;;10.33;6.97;;;;;;;;;;5047201;28;20180;-88
2023/12/08 08:33:38;;;;;;;7.30;6.70;;;5.70;99.90;;;;;;5052169;28;20216;-88
2023/12/08 08:36:05;;;;;;;10.87;8.20;;;5.60;99.90;;;;;;5052376;28;20174;-87
2023/12/08 08:38:31;;;;;;;7.88;6.60;;;5.90;99.90;;;;;;5054318;28;20193;-88
2023/12/08 08:40:57;;;;;;;15.20;7.90;;;7.80;99.90;;;;;;5048873;28;20190;-88
2023/12/08 08:43:22;;;;;;;8.90;7.40;;;5.40;99.90;;;;;;5049880;28;20208;-88
2023/12/08 08:45:48;;;;;;;12.50;7.23;;;6.40;99.90;;;;;;5033481;28;20224;-89
2023/12/08 08:48:14;;;;;;;8.18;6.88;;;5.70;99.90;;;;;;5064517;28;20213;-90
2023/12/08 08:50:39;;;;;;;8.87;6.90;;;5.90;99.90;;;;;;5029155;28;20216;-90
2023/12/08 08:53:05;;;;;;;10.50;7.30;;;6.20;99.90;;;;;;5026542;28;20177;-90
2023/12/08 08:55:31;;;;;;;14.70;8.00;;;;;;;;;;5025638;28;20181;-89
2023/12/08 08:57:57;;;;;;;9.18;7.85;;;6.20;99.90;;;;;;5027863;28;20313;-90
2023/12/08 09:00:25;;;;;;;7.60;6.80;;;;;;;;;;5031803;28;20275;-90
2023/12/08 09:02:51;;;;;;;8.20;6.97;;;6.40;99.90;;;;;;5035350;28;20574;-89
2023/12/08 09:05:18;;;;;;;7.70;6.90;;;7.00;99.90;;;;;;5035756;28;20202;-90
2023/12/08 09:07:44;;;;;;;8.68;7.13;;;6.70;99.90;;;;;;5034746;28;20872;-90
2023/12/08 09:10:11;;;;;;;8.30;7.50;;;7.00;99.90;;;;;;5035215;28;20209;-92
2023/12/08 09:12:36;;;;;;;13.32;8.82;;;6.80;99.90;;;;;;5016795;28;20190;-90
2023/12/08 09:15:03;;;;;;;10.03;7.10;;;6.20;99.90;;;;;;5031350;28;20208;-90
2023/12/08 09:17:29;;;;;;;10.15;7.70;;;6.60;99.90;;;;;;5056870;28;20189;-89
2023/12/08 09:19:55;;;;;;;10.73;8.17;;;7.00;99.90;;;;;;5040631;28;20213;-91
2023/12/08 09:22:21;;;;;;;11.38;8.85;;;;;;;;;;5050560;28;20173;-90
2023/12/08 09:24:47;;;;;;;11.43;9.55;;;7.10;99.90;;;;;;5029465;28;20258;-91
2023/12/08 09:27:12;;;;;;;19.50;9.73;;;6.60;99.90;;;;;;5035480;28;20198;-89
2023/12/08 09:29:38;;;;;;;9.80;8.20;;;7.10;99.90;;;;;;5036803;28;20189;-90
2023/12/08 09:32:04;;;;;;;12.50;9.20;;;6.30;99.90;;;;;;5038636;28;20182;-89
2023/12/08 09:34:29;;;;;;;12.77;8.90;;;6.70;99.90;;;;;;5047370;28;20213;-90
2023/12/08 09:36:55;;;;;;;10.73;8.00;;;6.40;99.90;;;;;;5034848;28;20451;-89
2023/12/08 09:39:21;;;;;;;13.43;9.83;;;6.60;99.90;;;;;;5031873;28;20209;-89
2023/12/08 09:41:50;;;;;;;9.93;8.10;;;6.70;99.90;;;;;;5050828;28;20410;-89
2023/12/08 09:44:16;;;;;;;11.85;10.25;;;6.50;99.90;;;;;;5045669;28;20265;-88
2023/12/08 09:46:46;;;;;;;12.30;9.00;;;6.50;99.90;;;;;;5033176;28;20173;-88
2023/12/08 09:49:21;;;;;;;13.25;8.43;;;6.60;99.90;;;;;;5054404;28;20233;-89
2023/12/08 09:51:47;;;;;;;13.50;11.05;;;6.80;99.90;;;;;;5042957;28;20193;-86
2023/12/08 09:54:13;;;;;;;10.68;8.52;;;6.70;99.90;;;;;;5034474;28;20225;-87
2023/12/08 09:56:39;;;;;;;13.30;8.00;;;6.80;99.90;;;;;;5029533;28;20201;-87
2023/12/08 09:59:05;;;;;;;9.50;8.17;;;6.80;99.90;;;;;;5032364;28;20303;-86
2023/12/08 10:01:31;;;;;;;11.25;8.68;;;6.60;99.90;;;;;;5037718;28;20762;-87
2023/12/08 10:03:56;;;;;;;12.30;8.70;;;6.80;99.90;;;;;;5036848;28;20288;-88
2023/12/08 10:06:25;;;;;;;10.53;7.70;;;6.70;99.90;;;;;;5035233;28;20280;-88
2023/12/08 10:08:51;;;;;;;8.68;7.80;;;7.20;99.90;;;;;;5031441;28;20182;-87
2023/12/08 10:11:17;;;;;;;10.40;9.30;;;6.70;99.90;;;;;;5026547;28;20181;-89
2023/12/08 10:13:42;;;;;;;9.57;7.37;;;6.90;99.90;;;;;;5029063;28;20682;-88
2023/12/08 10:16:08;;;;;;;8.82;7.65;;;6.80;99.90;;;;;;5030772;28;20189;-88
2023/12/08 10:18:34;;;;;;;12.30;9.53;;;7.40;99.90;;;;;;5031923;28;20189;-87
2023/12/08 10:21:17;;;;;;;6.28;5.57;;;7.20;99.90;;;;;;5046790;28;20182;-88
2023/12/08 10:23:45;;;;;;;8.18;5.65;;;7.50;99.90;;;;;;5025322;28;20263;-88
2023/12/08 10:26:15;;;;;;;6.82;5.95;;;7.00;99.90;;;;;;5017305;28;20182;-88
2023/12/08 10:28:42;;;;;;;6.40;4.50;;;7.60;99.90;;;;;;5037898;28;20658;-87
2023/12/08 10:31:09;;;;;;;7.50;4.70;;;7.50;99.90;;;;;;5034162;28;20187;-88
2023/12/08 10:33:41;;;;;;;6.43;5.00;;;8.00;99.90;;;;;;5036899;28;20553;-86
2023/12/08 10:36:07;;;;;;;7.97;4.75;;;6.90;99.90;;;;;;5030301;28;20181;-87
2023/12/08 10:42:12;;;;;;;5.13;4.60;;;8.00;99.90;;;;;;5031949;28;20201;-89
2023/12/08 10:44:40;;;;;;;5.78;4.47;;;6.70;99.90;;;;;;5020544;28;20206;-90
2023/12/08 10:47:06;;;;;;;7.28;4.60;;;8.40;99.90;;;;;;5039730;28;20186;-89
2023/12/08 10:49:34;;;;;;;6.00;5.00;;;7.40;99.90;;;;;;5034665;28;20248;-90
2023/12/08 10:52:00;;;;;;;10.25;8.40;;;9.60;99.90;;;;;;5048063;28;20460;-91
2023/12/08 10:54:26;;;;;;;8.25;4.53;;;6.90;99.90;;;;;;5050436;28;20210;-89
2023/12/08 10:56:52;;;;;;;6.00;4.70;;;7.60;99.90;;;;;;5055667;28;20170;-90
2023/12/08 10:59:24;;;;;;;4.50;4.10;;;8.20;99.90;;;;;;5071048;28;20213;-90
2023/12/08 11:01:55;;;;;;;5.38;4.68;;;8.20;99.90;;;;;;5045477;28;20213;-90
2023/12/08 11:04:21;;;;;;;4.90;4.30;;;9.00;99.90;;;;;;5039187;28;20206;-90
2023/12/08 11:06:59;;;;;;;5.57;4.30;;;7.70;99.90;;;;;;5041664;28;20182;-90
2023/12/08 11:09:28;;;;;;;5.93;4.93;;;8.00;99.90;;;;;;5037559;28;20222;-90
2023/12/08 11:11:55;;;;;;;5.20;3.90;;;9.30;99.90;;;;;;5036689;28;20202;-88
2023/12/08 11:14:55;;;;;;;5.72;4.80;;;9.30;99.90;;;;;;5047731;28;20202;-88
2023/12/08 11:17:29;;;;;;;6.15;4.80;;;8.30;99.90;;;;;;5043576;28;20187;-88
2023/12/08 11:19:56;;;;;;;4.97;4.18;;;8.10;99.90;;;;;;5036529;28;20205;-88
2023/12/08 11:22:22;;;;;;;5.18;4.47;;;7.60;99.90;;;;;;5028107;28;20190;-88
2023/12/08 11:24:49;;;;;;;5.65;4.75;;;9.80;99.90;;;;;;5048697;28;20203;-90
2023/12/08 11:27:27;;;;;;;4.30;3.90;;;9.40;99.90;;;;;;5034037;28;20761;-89
2023/12/08 11:30:09;;;;;;;4.85;4.35;;;9.00;99.90;;;;;;5031173;28;20182;-89
2023/12/08 11:33:12;;;;;;;5.22;4.45;;;8.60;99.90;;;;;;5040641;28;20204;-89
2023/12/08 11:35:38;;;;;;;5.28;4.05;;;8.50;99.90;;;;;;5020134;28;20782;-89
2023/12/08 11:38:04;;;;;;;5.80;4.45;;;8.20;99.90;;;;;;5033441;28;20190;-89
2023/12/08 11:40:30;;;;;;;4.60;4.10;;;;;;;;;;5029321;28;20209;-89
2023/12/08 11:42:56;;;;;;;7.22;5.00;;;8.50;99.90;;;;;;5034652;28;20190;-89
2023/12/08 11:45:22;;;;;;;5.82;4.20;;;10.20;99.90;;;;;;5033753;28;20214;-89
2023/12/08 11:47:48;;;;;;;5.83;4.13;;;9.70;99.90;;;;;;5027852;28;20710;-89
2023/12/08 11:50:13;;;;;;;6.40;4.67;;;11.10;99.90;;;;;;5036978;28;20191;-89
2023/12/08 11:52:42;;;;;;;7.80;4.50;;;10.00;99.90;;;;;;5029703;28;20607;-89
2023/12/08 11:55:16;;;;;;;5.72;4.65;;;10.00;99.90;;;;;;5034473;28;20221;-89
2023/12/08 11:57:53;;;;;;;7.13;5.20;;;9.10;99.90;;;;;;5041843;28;20205;-89
2023/12/08 12:00:21;;;;;;;8.38;5.22;;;10.00;99.90;;;;;;5053933;28;20217;-88
2023/12/08 12:02:48;;;;;;;6.38;4.60;;;9.00;99.90;;;;;;5050330;28;20191;-89
2023/12/08 12:05:13;;;;;;;7.55;4.60;;;10.00;99.90;;;;;;5046501;28;20261;-89
2023/12/08 12:07:45;;;;;;;7.87;4.80;;;9.20;99.90;;;;;;5041181;28;20602;-89
2023/12/08 12:10:12;;;;;;;6.25;4.60;;;8.70;99.90;;;;;;5038641;28;20185;-89
2023/12/08 12:13:14;;;;;;;5.40;4.20;;;9.30;99.90;;;;;;5030546;28;20655;-88
2023/12/08 12:15:40;;;;;;;6.90;4.50;;;11.40;99.90;;;;;;4996116;28;20198;-88
2023/12/08 12:18:07;;;;;;;5.00;4.50;;;8.50;99.90;;;;;;5051687;28;20222;-89
2023/12/08 12:20:35;;;;;;;4.30;3.70;;;9.30;99.90;;;;;;5061904;28;20264;-89
2023/12/08 12:23:01;;;;;;;5.72;4.25;;;;;;;;;;5032954;28;20191;-88
2023/12/08 12:25:27;;;;;;;5.60;4.82;;;9.60;99.90;;;;;;5034299;28;20219;-89
2023/12/08 12:27:53;;;;;;;4.40;4.00;;;9.80;99.90;;;;;;5048719;28;20200;-89
2023/12/08 12:30:20;;;;;;;6.20;4.72;;;9.40;99.90;;;;;;5049942;28;20367;-89
2023/12/08 12:32:47;;;;;;;5.65;5.15;;;10.20;99.90;;;;;;5045744;28;20190;-89
2023/12/08 12:35:13;;;;;;;5.82;4.47;;;9.10;99.90;;;;;;5024759;28;20261;-89
2023/12/08 12:37:39;;;;;;;5.72;4.93;;;9.90;99.90;;;;;;5031748;28;20294;-89
2023/12/08 12:40:09;;;;;;;4.60;3.08;;;10.10;99.90;;;;;;5034020;28;20229;-90
2023/12/08 12:42:54;;;;;;;4.57;3.55;;;10.20;99.90;;;;;;5035758;28;20187;-89
2023/12/08 12:45:31;;;;;;;5.65;4.03;;;9.60;99.90;;;;;;5036460;28;20207;-89
2023/12/08 12:48:04;;;;;;;4.78;3.95;;;9.50;99.90;;;;;;5032853;28;20183;-88
2023/12/08 12:50:30;;;;;;;3.55;3.20;;;12.00;99.90;;;;;;5033074;28;20186;-89
2023/12/08 12:53:04;;;;;;;4.63;4.13;;;11.50;99.90;;;;;;5029928;28;20188;-89
2023/12/08 12:55:31;;;;;;;3.55;3.20;;;10.40;99.90;;;;;;5034667;28;20445;-89
2023/12/08 12:57:56;;;;;;;3.83;3.08;;;10.00;99.90;;;;;;5046042;28;20191;-88